createdAt,value
2022-11-15T00:04:12.737Z,6.30
2022-11-15T00:09:14.579Z,6.30
2022-11-15T00:14:16.545Z,6.30
2022-11-15T00:19:18.473Z,6.30
2022-11-15T00:24:20.454Z,6.30
2022-11-15T00:29:22.295Z,6.30
2022-11-15T00:34:24.140Z,6.30
2022-11-15T00:39:26.036Z,6.30
2022-11-15T00:44:27.975Z,6.30
2022-11-15T00:49:29.848Z,6.30
2022-11-15T00:54:31.941Z,6.30
2022-11-15T00:59:33.799Z,6.30
2022-11-15T01:04:35.620Z,6.40
2022-11-15T01:09:37.668Z,6.30
2022-11-15T01:14:39.528Z,6.30
2022-11-15T01:19:41.346Z,6.30
2022-11-15T01:24:43.233Z,6.30
2022-11-15T01:29:45.102Z,6.30
2022-11-15T01:34:46.927Z,6.30
2022-11-15T01:39:48.827Z,6.30
2022-11-15T01:44:52.618Z,6.40
2022-11-15T01:49:54.482Z,6.40
2022-11-15T01:55:02.169Z,6.30
2022-11-15T02:00:06.790Z,6.40
2022-11-15T02:05:09.028Z,6.40
2022-11-15T02:10:13.950Z,6.40
2022-11-15T02:15:16.299Z,6.40
2022-11-15T02:20:44.518Z,6.40
2022-11-15T02:26:17.179Z,6.50
2022-11-15T02:31:29.095Z,6.50
2022-11-15T02:36:44.844Z,6.50
2022-11-15T02:41:56.572Z,6.50
2022-11-15T02:47:13.626Z,6.50
2022-11-15T02:52:21.161Z,6.50
2022-11-15T02:57:36.558Z,6.50
2022-11-15T03:03:13.340Z,6.50
2022-11-15T03:08:33.842Z,6.40
2022-11-15T03:13:38.782Z,6.40
2022-11-15T03:18:43.158Z,6.40
2022-11-15T03:23:46.004Z,6.40
2022-11-15T03:29:02.400Z,6.40
2022-11-15T03:34:06.862Z,6.30
2022-11-15T03:39:09.552Z,6.40
2022-11-15T03:44:21.048Z,6.40
2022-11-15T03:49:29.172Z,6.40
2022-11-15T03:54:31.460Z,6.30
2022-11-15T03:59:33.406Z,6.30
2022-11-15T04:04:35.231Z,6.30
2022-11-15T04:09:59.904Z,6.20
2022-11-15T04:15:09.670Z,6.10
2022-11-15T04:20:46.238Z,6.10
2022-11-15T04:25:51.214Z,6.10
2022-11-15T04:30:53.210Z,6.10
2022-11-15T04:36:13.606Z,6.10
2022-11-15T04:41:15.415Z,6.10
2022-11-15T04:46:17.280Z,6.10
2022-11-15T04:51:19.688Z,6.00
2022-11-15T04:56:21.551Z,6.00
2022-11-15T05:01:23.409Z,6.00
2022-11-15T05:06:25.279Z,6.00
2022-11-15T05:11:28.340Z,6.00
2022-11-15T05:16:30.164Z,6.00
2022-11-15T05:21:32.599Z,6.00
2022-11-15T05:26:34.476Z,6.00
2022-11-15T05:31:41.194Z,6.00
2022-11-15T05:36:44.089Z,6.00
2022-11-15T05:41:50.334Z,6.00
2022-11-15T05:46:54.492Z,6.00
2022-11-15T05:51:56.468Z,6.00
2022-11-15T05:56:58.349Z,6.00
2022-11-15T06:02:00.403Z,6.00
2022-11-15T06:07:02.295Z,6.00
2022-11-15T06:12:04.513Z,6.10
2022-11-15T06:17:11.140Z,6.10
2022-11-15T06:22:13.521Z,6.10
2022-11-15T06:27:15.407Z,6.10
2022-11-15T06:32:17.239Z,6.10
2022-11-15T06:37:19.054Z,6.20
2022-11-15T06:42:20.877Z,6.10
2022-11-15T06:47:22.761Z,6.10
2022-11-15T06:52:24.821Z,6.10
2022-11-15T06:57:26.660Z,6.10
2022-11-15T07:02:28.647Z,6.10
2022-11-15T07:07:30.509Z,6.10
2022-11-15T07:12:32.399Z,6.10
2022-11-15T07:17:34.245Z,6.10
2022-11-15T07:22:36.081Z,6.10
2022-11-15T07:27:38.314Z,6.10
2022-11-15T07:32:40.380Z,6.20
2022-11-15T07:37:42.194Z,6.20
2022-11-15T07:42:56.765Z,6.20
2022-11-15T07:47:58.801Z,6.20
2022-11-15T07:53:00.910Z,6.20
2022-11-15T07:58:07.476Z,6.30
2022-11-15T08:03:18.502Z,6.30
2022-11-15T08:08:20.418Z,6.30
2022-11-15T08:13:22.497Z,6.30
2022-11-15T08:18:24.458Z,6.40
2022-11-15T08:23:26.542Z,6.40
2022-11-15T08:28:28.388Z,6.40
2022-11-15T08:33:31.170Z,6.40
2022-11-15T08:38:33.811Z,6.50
2022-11-15T08:43:35.936Z,6.60
2022-11-15T08:48:37.810Z,6.60
2022-11-15T08:53:39.904Z,6.60
2022-11-15T08:58:42.043Z,6.70
2022-11-15T09:03:44.111Z,6.70
2022-11-15T09:08:47.826Z,6.70
2022-11-15T09:13:50.991Z,6.70
2022-11-15T09:18:54.572Z,6.70
2022-11-15T09:23:58.193Z,6.70
2022-11-15T09:29:02.977Z,6.70
2022-11-15T09:34:04.827Z,6.70
2022-11-15T09:39:06.652Z,6.80
2022-11-15T09:44:35.434Z,6.80
2022-11-15T09:49:37.330Z,6.90
2022-11-15T09:54:56.341Z,6.80
2022-11-15T10:00:44.857Z,6.80
2022-11-15T10:05:50.811Z,6.90
2022-11-15T10:11:36.213Z,6.90
2022-11-15T10:17:08.006Z,6.90
2022-11-15T10:22:12.776Z,7.00
2022-11-15T10:27:17.347Z,7.10
2022-11-15T10:32:22.780Z,7.10
2022-11-15T10:37:34.971Z,7.20
2022-11-15T10:42:36.784Z,7.20
2022-11-15T10:47:39.883Z,7.30
2022-11-15T10:52:46.637Z,7.20
2022-11-15T10:57:53.516Z,7.30
2022-11-15T11:03:02.946Z,7.40
2022-11-15T11:08:16.332Z,7.30
2022-11-15T11:13:38.907Z,7.40
2022-11-15T11:18:58.827Z,7.40
2022-11-15T11:24:30.036Z,7.40
2022-11-15T11:29:54.986Z,7.40
2022-11-15T11:35:23.991Z,7.40
2022-11-15T11:40:38.140Z,7.50
2022-11-15T11:46:04.652Z,7.40
2022-11-15T11:51:19.497Z,7.40
2022-11-15T11:56:29.797Z,7.50
2022-11-15T12:01:36.738Z,7.50
2022-11-15T12:07:09.488Z,7.50
2022-11-15T12:12:26.277Z,7.50
2022-11-15T12:17:33.896Z,7.50
2022-11-15T12:22:50.889Z,7.50
2022-11-15T12:28:19.882Z,7.50
2022-11-15T12:33:47.323Z,7.50
2022-11-15T12:38:59.298Z,7.60
2022-11-15T12:44:04.851Z,7.60
2022-11-15T12:49:24.658Z,7.60
2022-11-15T12:54:27.564Z,7.60
2022-11-15T12:59:59.632Z,7.60
2022-11-15T13:05:34.085Z,7.60
2022-11-15T13:10:35.911Z,7.60
2022-11-15T13:15:57.138Z,7.70
2022-11-15T13:21:02.342Z,7.70
2022-11-15T13:26:17.584Z,7.70
2022-11-15T13:31:31.787Z,7.70
2022-11-15T13:36:35.217Z,7.80
2022-11-15T13:41:48.612Z,7.80
2022-11-15T13:47:04.068Z,7.80
2022-11-15T13:52:08.050Z,7.90
2022-11-15T13:57:29.039Z,7.80
2022-11-15T14:02:35.787Z,7.90
2022-11-15T14:07:44.314Z,7.90
2022-11-15T14:12:56.627Z,7.90
2022-11-15T14:17:58.782Z,7.90
2022-11-15T14:23:23.622Z,7.90
2022-11-15T14:28:28.118Z,7.90
2022-11-15T14:33:37.760Z,7.90
2022-11-15T14:38:40.114Z,7.90
2022-11-15T14:43:44.029Z,7.90
2022-11-15T14:48:53.845Z,7.90
2022-11-15T14:53:58.796Z,7.90
2022-11-15T14:59:01.096Z,7.90
2022-11-15T15:04:04.164Z,8.00
2022-11-15T15:09:06.237Z,8.00
2022-11-15T15:14:11.460Z,8.00
2022-11-15T15:19:13.307Z,8.00
2022-11-15T15:24:17.887Z,8.00
2022-11-15T15:29:19.938Z,8.00
2022-11-15T15:34:23.521Z,8.00
2022-11-15T15:39:41.876Z,8.00
2022-11-15T15:44:44.161Z,8.00
2022-11-15T15:49:46.320Z,8.00
2022-11-15T15:54:48.258Z,8.00
2022-11-15T15:59:51.685Z,8.00
2022-11-15T16:04:53.607Z,8.10
2022-11-15T16:10:01.690Z,8.10
2022-11-15T16:15:05.845Z,8.10
2022-11-15T16:20:08.243Z,8.10
2022-11-15T16:25:10.520Z,8.10
2022-11-15T16:30:17.829Z,8.10
2022-11-15T16:35:23.473Z,8.10
2022-11-15T16:40:34.032Z,8.00
2022-11-15T16:45:36.396Z,8.10
2022-11-15T16:50:41.095Z,8.10
2022-11-15T16:55:45.429Z,8.20
2022-11-15T17:00:51.410Z,8.10
2022-11-15T17:06:00.690Z,8.20
2022-11-15T17:11:08.850Z,8.20
2022-11-15T17:16:15.647Z,8.20
2022-11-15T17:21:23.640Z,8.20
2022-11-15T17:26:31.991Z,8.20
2022-11-15T17:31:36.608Z,8.20
2022-11-15T17:36:40.001Z,8.20
2022-11-15T17:41:43.973Z,8.20
2022-11-15T17:46:47.293Z,8.20
2022-11-15T17:51:58.952Z,8.30
2022-11-15T17:57:00.968Z,8.30
2022-11-15T18:02:08.792Z,8.30
2022-11-15T18:07:14.258Z,8.30
2022-11-15T18:12:22.570Z,8.30
2022-11-15T18:17:24.980Z,8.30
2022-11-15T18:22:44.272Z,8.30
2022-11-15T18:27:46.993Z,8.30
2022-11-15T18:32:54.056Z,8.20
2022-11-15T18:37:56.481Z,8.20
2022-11-15T18:42:58.519Z,8.30
2022-11-15T18:48:00.905Z,8.30
2022-11-15T18:53:04.952Z,8.30
2022-11-15T18:58:12.362Z,8.30
2022-11-15T19:03:14.206Z,8.30
2022-11-15T19:08:16.453Z,8.30
2022-11-15T19:13:18.451Z,8.20
2022-11-15T19:18:20.378Z,8.30
2022-11-15T19:23:28.392Z,8.20
2022-11-15T19:28:30.840Z,8.20
2022-11-15T19:33:33.314Z,8.20
2022-11-15T19:38:38.039Z,8.20
2022-11-15T19:43:40.531Z,8.20
2022-11-15T19:48:42.873Z,8.20
2022-11-15T19:53:45.417Z,8.20
2022-11-15T19:58:51.095Z,8.20
2022-11-15T20:03:57.845Z,8.20
2022-11-15T20:09:03.629Z,8.20
2022-11-15T20:14:08.312Z,8.30
2022-11-15T20:19:12.517Z,8.30
2022-11-15T20:24:15.104Z,8.20
2022-11-15T20:29:17.034Z,8.20
2022-11-15T20:34:37.241Z,8.20
2022-11-15T20:40:22.459Z,8.20
2022-11-15T20:46:15.611Z,8.20
2022-11-15T20:52:16.560Z,8.20
2022-11-15T20:57:46.150Z,8.20
2022-11-15T21:02:51.625Z,8.20
2022-11-15T21:07:54.194Z,8.20
2022-11-15T21:18:48.836Z,8.20
2022-11-15T21:24:11.155Z,8.20
2022-11-15T21:29:17.118Z,8.20
2022-11-15T21:34:22.229Z,8.20
2022-11-15T21:39:26.266Z,8.20
2022-11-15T21:44:30.207Z,8.20
2022-11-15T21:49:34.212Z,8.20
2022-11-15T21:54:36.442Z,8.10
2022-11-15T22:00:00.557Z,8.10
2022-11-15T22:05:05.725Z,8.10
2022-11-15T22:10:08.004Z,8.20
2022-11-15T22:15:12.192Z,8.10
2022-11-15T22:20:42.920Z,8.20
2022-11-15T22:25:39.331Z,8.10
2022-11-15T22:30:46.599Z,8.10
2022-11-15T22:35:50.734Z,8.10
2022-11-15T22:40:53.337Z,8.10
2022-11-15T22:45:58.292Z,8.10
2022-11-15T22:51:00.786Z,8.10
2022-11-15T22:56:07.471Z,8.10
2022-11-15T23:01:20.699Z,8.10
2022-11-15T23:06:24.928Z,8.10
2022-11-15T23:11:47.956Z,8.10
2022-11-15T23:16:54.059Z,8.10
2022-11-15T23:22:17.932Z,8.10
2022-11-15T23:27:21.098Z,8.10
2022-11-15T23:32:41.570Z,8.10
2022-11-15T23:37:46.197Z,8.10
2022-11-15T23:42:48.419Z,8.10
2022-11-15T23:47:54.688Z,8.10
2022-11-15T23:53:02.672Z,8.10
2022-11-15T23:58:05.779Z,8.10
